Terminal Aerodrome Forecast
Issued by NWS Cleveland, OH

Home | Current Version | Previous Version | Graphics & Text | Print | Product List | Glossary Off
Versions: 1 2 3 4 5 6 7 8 9 10 11 12 13 14 15 16

000
FTUS41 KCLE 221737
TAFYNG
TAF
KYNG 221737Z 2218/2318 22015G25KT P6SM VCTS BKN035CB BKN100
      TEMPO 2220/2222 5SM -TSRA BR OVC030CB
     FM222200 25010G20KT P6SM -SHRA BKN035 BKN090
     FM230100 27008KT P6SM VCSH BKN035 BKN060
     FM230300 31006KT P6SM SCT045 BKN060
     FM231600 32005KT P6SM SCT040=

USA.gov is the U.S. government's official web portal to all federal, state and local government web resources and services.